createdAt,value
2023-12-11T00:00:08.739Z,106.33
2023-12-11T00:00:41.096Z,107.00
2023-12-11T00:01:13.616Z,107.00
2023-12-11T00:01:46.399Z,107.33
2023-12-11T00:02:18.924Z,108.67
2023-12-11T00:02:51.077Z,110.33
2023-12-11T00:03:23.233Z,111.00
2023-12-11T00:03:57.131Z,112.67
2023-12-11T00:04:29.207Z,113.00
2023-12-11T00:05:01.867Z,113.00
2023-12-11T00:05:33.947Z,113.00
2023-12-11T00:06:06.739Z,113.00
2023-12-11T00:06:38.801Z,113.67
2023-12-11T00:07:10.980Z,115.33
2023-12-11T00:07:43.204Z,115.67
2023-12-11T00:08:15.276Z,118.00
2023-12-11T00:08:47.463Z,120.33
2023-12-11T00:09:19.476Z,120.33
2023-12-11T00:09:51.588Z,120.33
2023-12-11T00:10:23.620Z,120.00
2023-12-11T00:10:55.608Z,121.33
2023-12-11T00:11:27.665Z,123.00
2023-12-11T00:11:59.709Z,124.00
2023-12-11T00:12:31.788Z,125.33
2023-12-11T00:13:04.023Z,125.00
2023-12-11T00:13:36.063Z,127.67
2023-12-11T00:14:08.206Z,136.67
2023-12-11T00:14:40.346Z,133.33
2023-12-11T00:15:12.636Z,134.67
2023-12-11T00:15:44.717Z,134.33
2023-12-11T00:16:17.595Z,137.33
2023-12-11T00:16:49.660Z,137.00
2023-12-11T00:17:24.264Z,139.33
2023-12-11T00:17:56.505Z,138.67
2023-12-11T00:18:28.824Z,139.33
2023-12-11T00:19:02.390Z,141.00
2023-12-11T00:19:34.739Z,140.67
2023-12-11T00:20:08.065Z,139.33
2023-12-11T00:20:40.282Z,139.00
2023-12-11T00:21:12.672Z,138.67
2023-12-11T00:21:44.720Z,140.33
2023-12-11T00:22:16.750Z,143.33
2023-12-11T00:22:49.017Z,151.00
2023-12-11T00:23:21.210Z,160.00
2023-12-11T00:23:54.080Z,152.33
2023-12-11T00:24:26.138Z,153.33
2023-12-11T00:24:58.250Z,155.00
2023-12-11T00:25:30.567Z,157.33
2023-12-11T00:26:02.673Z,154.67
2023-12-11T00:26:34.719Z,153.33
2023-12-11T00:27:06.721Z,153.67
2023-12-11T00:27:38.726Z,153.67
2023-12-11T00:28:10.880Z,153.00
2023-12-11T00:28:42.935Z,154.33
2023-12-11T00:29:15.254Z,156.67
2023-12-11T00:29:47.361Z,157.00
2023-12-11T00:30:19.401Z,157.33
2023-12-11T00:30:52.261Z,159.67
2023-12-11T00:31:24.470Z,165.33
2023-12-11T00:31:56.488Z,165.00
2023-12-11T00:32:28.567Z,163.67
2023-12-11T00:33:00.603Z,164.67
2023-12-11T00:33:32.750Z,164.00
2023-12-11T00:34:06.351Z,163.00
2023-12-11T00:34:38.605Z,162.00
2023-12-11T00:35:10.725Z,162.00
2023-12-11T00:35:42.877Z,161.33
2023-12-11T00:36:14.957Z,161.00
2023-12-11T00:36:47.026Z,161.00
2023-12-11T00:37:19.056Z,160.00
2023-12-11T00:37:51.124Z,159.67
2023-12-11T00:38:23.192Z,159.67
2023-12-11T00:38:55.260Z,160.00
2023-12-11T00:39:28.004Z,160.00
2023-12-11T00:40:00.083Z,160.00
2023-12-11T00:40:32.407Z,160.67
2023-12-11T00:41:04.846Z,160.67
2023-12-11T00:41:36.899Z,161.00
2023-12-11T00:42:09.127Z,161.67
2023-12-11T00:42:41.392Z,161.00
2023-12-11T00:43:13.669Z,161.33
2023-12-11T00:43:46.815Z,161.00
2023-12-11T00:44:19.247Z,161.00
2023-12-11T00:44:51.359Z,163.33
2023-12-11T00:45:23.385Z,168.33
2023-12-11T00:45:55.658Z,171.67
2023-12-11T00:46:27.693Z,171.00
2023-12-11T00:46:59.756Z,174.00
2023-12-11T00:47:32.270Z,184.00
2023-12-11T00:48:05.123Z,182.33
2023-12-11T00:48:37.265Z,179.67
2023-12-11T00:49:11.048Z,178.33
2023-12-11T00:49:43.165Z,178.67
2023-12-11T00:50:15.287Z,178.00
2023-12-11T00:50:47.484Z,178.33
2023-12-11T00:51:20.754Z,177.67
2023-12-11T00:51:52.773Z,176.33
2023-12-11T00:52:24.904Z,176.00
2023-12-11T00:52:56.874Z,176.33
2023-12-11T00:53:28.894Z,176.00
2023-12-11T00:54:00.928Z,175.00
2023-12-11T00:54:33.074Z,176.00
2023-12-11T00:55:06.077Z,177.67
2023-12-11T00:55:38.175Z,177.33
2023-12-11T00:56:10.494Z,179.00
2023-12-11T00:56:42.614Z,179.67
2023-12-11T00:57:14.842Z,185.67
2023-12-11T00:57:49.989Z,188.67
2023-12-11T00:58:22.161Z,190.67
2023-12-11T00:58:54.207Z,190.67
2023-12-11T00:59:26.412Z,190.67
2023-12-11T00:59:58.619Z,189.00
2023-12-11T01:00:30.764Z,190.67
2023-12-11T01:01:02.913Z,192.33
2023-12-11T01:01:35.025Z,192.33
2023-12-11T01:02:07.148Z,193.33
2023-12-11T01:02:39.143Z,196.33
2023-12-11T01:03:11.245Z,195.67
2023-12-11T01:03:43.514Z,196.00
2023-12-11T01:04:17.248Z,197.67
2023-12-11T01:04:49.501Z,198.67
2023-12-11T01:05:21.577Z,196.33
2023-12-11T01:05:53.715Z,197.00
2023-12-11T01:06:25.780Z,199.33
2023-12-11T01:06:57.902Z,202.67
2023-12-11T01:07:30.263Z,201.33
2023-12-11T01:08:02.524Z,201.33
2023-12-11T01:08:34.677Z,199.33
2023-12-11T01:09:06.857Z,199.00
2023-12-11T01:09:38.968Z,198.67
2023-12-11T01:10:11.160Z,199.33
2023-12-11T01:10:43.386Z,199.00
2023-12-11T01:11:15.447Z,200.33
2023-12-11T01:11:47.452Z,199.67
2023-12-11T01:12:19.640Z,200.00
2023-12-11T01:12:51.797Z,199.00
2023-12-11T01:13:23.903Z,199.00
2023-12-11T01:13:55.976Z,198.33
2023-12-11T01:14:28.061Z,198.00
2023-12-11T01:15:00.113Z,198.67
2023-12-11T01:15:32.258Z,195.00
2023-12-11T01:16:05.138Z,191.33
2023-12-11T01:16:37.204Z,185.00
2023-12-11T01:17:36.695Z,180.67
2023-12-11T01:18:01.393Z,181.00
2023-12-11T01:18:33.655Z,180.33
2023-12-11T01:19:06.217Z,179.33
2023-12-11T01:19:40.240Z,178.33
2023-12-11T01:20:12.842Z,175.33
2023-12-11T01:20:44.932Z,167.33
2023-12-11T01:21:17.139Z,158.00
2023-12-11T01:21:49.198Z,142.33
2023-12-11T01:22:21.204Z,140.33
2023-12-11T01:22:53.252Z,133.33
2023-12-11T01:23:25.296Z,129.67
2023-12-11T01:23:58.261Z,136.67
2023-12-11T01:24:30.469Z,136.33
2023-12-11T01:25:02.572Z,132.67
2023-12-11T01:25:35.210Z,135.67
2023-12-11T01:26:07.490Z,136.33
2023-12-11T01:26:39.850Z,134.67
2023-12-11T01:27:11.942Z,133.33
2023-12-11T01:27:44.031Z,133.67
2023-12-11T01:28:16.274Z,130.67
2023-12-11T01:28:48.332Z,130.67
2023-12-11T01:29:20.378Z,127.67
2023-12-11T01:29:52.452Z,130.67
2023-12-11T01:30:24.705Z,131.67
2023-12-11T01:30:56.828Z,129.67
2023-12-11T01:31:28.874Z,126.33
2023-12-11T01:32:01.024Z,122.33
2023-12-11T01:32:33.105Z,124.00
2023-12-11T01:33:05.379Z,126.00
2023-12-11T01:33:37.527Z,126.67
2023-12-11T01:34:09.746Z,123.67
2023-12-11T01:34:43.486Z,124.00
2023-12-11T01:35:15.617Z,120.67
2023-12-11T01:35:47.644Z,106.00
2023-12-11T01:36:19.634Z,103.67
2023-12-11T01:36:51.702Z,94.00
2023-12-11T01:37:23.797Z,85.33
2023-12-11T01:37:55.866Z,79.00
2023-12-11T01:38:27.986Z,72.33
2023-12-11T01:39:00.023Z,68.33
2023-12-11T01:39:32.030Z,65.67
2023-12-11T01:40:05.018Z,63.33
2023-12-11T01:40:37.105Z,57.33
2023-12-11T01:41:09.094Z,59.00
2023-12-11T01:41:43.992Z,60.00
2023-12-11T01:42:16.089Z,59.67
2023-12-11T01:42:48.372Z,59.00
2023-12-11T01:43:20.916Z,59.67
2023-12-11T01:43:53.549Z,59.00
2023-12-11T01:44:25.784Z,61.00
2023-12-11T01:44:57.899Z,61.33
2023-12-11T01:45:30.142Z,63.00
2023-12-11T01:46:06.380Z,66.00
2023-12-11T01:46:39.503Z,66.00
2023-12-11T01:47:11.930Z,66.00
2023-12-11T01:47:44.260Z,66.00
2023-12-11T01:48:16.946Z,67.67
2023-12-11T01:48:50.075Z,68.67
2023-12-11T01:49:22.357Z,69.67
2023-12-11T01:49:55.863Z,70.67
2023-12-11T01:50:28.002Z,71.00
2023-12-11T01:51:00.502Z,72.00
2023-12-11T01:51:32.894Z,72.67
2023-12-11T01:52:07.106Z,74.33
2023-12-11T01:52:39.702Z,78.33
2023-12-11T01:53:11.972Z,80.00
2023-12-11T01:53:45.688Z,81.00
2023-12-11T01:54:17.865Z,82.33
2023-12-11T01:54:49.983Z,83.33
2023-12-11T01:55:22.046Z,85.00
2023-12-11T01:55:54.732Z,85.33
2023-12-11T01:56:27.193Z,86.00
2023-12-11T01:56:59.422Z,85.33
2023-12-11T01:57:32.152Z,85.67
2023-12-11T01:58:05.471Z,86.67
2023-12-11T01:58:38.254Z,89.00
2023-12-11T01:59:11.195Z,93.00
2023-12-11T01:59:47.534Z,94.33
2023-12-11T02:00:21.083Z,94.00
2023-12-11T02:00:53.396Z,94.00
2023-12-11T02:01:27.647Z,93.00
2023-12-11T02:02:00.485Z,93.00
2023-12-11T02:02:32.542Z,94.33
2023-12-11T02:03:05.283Z,95.67
2023-12-11T02:03:38.640Z,96.00
2023-12-11T02:04:10.888Z,98.33
2023-12-11T02:04:43.219Z,100.67
2023-12-11T02:05:16.751Z,101.67
2023-12-11T02:05:49.735Z,102.00
2023-12-11T02:06:22.896Z,103.67
2023-12-11T02:06:55.029Z,102.33
2023-12-11T02:07:27.296Z,103.00
2023-12-11T02:07:59.698Z,103.33
2023-12-11T02:08:31.892Z,104.67
2023-12-11T02:09:04.022Z,104.33
2023-12-11T02:09:36.178Z,104.00
2023-12-11T02:10:09.229Z,104.00
2023-12-11T02:10:41.412Z,103.00
2023-12-11T02:11:13.628Z,103.00
2023-12-11T02:11:47.283Z,103.00
2023-12-11T02:12:19.588Z,103.00
2023-12-11T02:12:51.818Z,103.00
2023-12-11T02:13:23.932Z,104.00
2023-12-11T02:13:56.135Z,104.33
2023-12-11T02:14:28.346Z,105.00
2023-12-11T02:15:00.342Z,105.00
2023-12-11T02:19:10.104Z,104.00
2023-12-11T02:19:42.348Z,105.33
2023-12-11T02:20:15.878Z,106.00
2023-12-11T02:20:48.150Z,106.00
2023-12-11T02:21:20.262Z,106.00
2023-12-11T02:21:53.445Z,106.33
2023-12-11T02:22:25.924Z,107.33
2023-12-11T02:23:01.477Z,108.33
2023-12-11T02:23:48.189Z,109.00
2023-12-11T02:24:23.815Z,109.67
2023-12-11T02:25:00.991Z,110.00
2023-12-11T02:25:36.566Z,115.67
2023-12-11T02:26:12.192Z,116.33
2023-12-11T02:26:44.723Z,115.00
2023-12-11T02:27:16.947Z,114.67
2023-12-11T02:27:48.998Z,113.67
2023-12-11T02:28:21.114Z,110.33
2023-12-11T02:28:53.132Z,108.67
2023-12-11T02:29:25.183Z,109.33
2023-12-11T02:29:57.242Z,109.00
2023-12-11T02:30:32.625Z,109.00
2023-12-11T02:31:05.625Z,107.67
2023-12-11T02:31:38.682Z,105.33
2023-12-11T02:32:10.819Z,102.33
2023-12-11T02:32:42.872Z,101.00
2023-12-11T02:33:15.158Z,100.67
2023-12-11T02:33:47.236Z,100.00
2023-12-11T02:34:19.348Z,100.67
2023-12-11T02:34:51.463Z,101.00
2023-12-11T02:35:23.488Z,100.33
2023-12-11T02:35:55.823Z,99.33
2023-12-11T02:36:28.055Z,98.00
2023-12-11T02:37:00.202Z,98.00
2023-12-11T02:37:32.532Z,98.00
2023-12-11T02:38:04.712Z,98.67
2023-12-11T02:38:36.832Z,97.00
2023-12-11T02:39:08.942Z,95.67
2023-12-11T02:39:41.427Z,94.67
2023-12-11T02:40:13.707Z,93.33
2023-12-11T02:40:45.726Z,93.00
2023-12-11T02:41:19.184Z,92.67
2023-12-11T02:41:51.285Z,93.00
2023-12-11T02:42:23.284Z,93.00
2023-12-11T02:42:55.537Z,93.33
2023-12-11T02:43:27.644Z,94.00
2023-12-11T02:44:00.433Z,94.00
2023-12-11T02:44:32.572Z,94.00
2023-12-11T02:45:05.617Z,93.33
2023-12-11T02:45:37.764Z,93.00
2023-12-11T02:46:12.852Z,92.33
2023-12-11T02:46:44.954Z,90.33
2023-12-11T02:47:16.956Z,89.00
2023-12-11T02:47:49.061Z,88.67
2023-12-11T02:48:21.504Z,87.33
2023-12-11T02:48:53.777Z,86.67
2023-12-11T02:49:26.153Z,85.33
2023-12-11T02:49:58.230Z,84.00
2023-12-11T02:50:30.313Z,83.00
2023-12-11T02:51:02.484Z,82.00
2023-12-11T02:51:34.985Z,80.00
2023-12-11T02:52:07.401Z,78.33
2023-12-11T02:52:39.420Z,76.33
2023-12-11T02:53:11.447Z,76.67
2023-12-11T02:53:43.966Z,76.67
2023-12-11T02:54:16.086Z,77.33
2023-12-11T02:54:48.282Z,77.67
2023-12-11T02:55:20.381Z,76.67
2023-12-11T02:55:52.401Z,76.33
2023-12-11T02:56:25.752Z,77.00
2023-12-11T02:56:57.801Z,76.00
2023-12-11T02:57:30.322Z,75.00
2023-12-11T02:58:04.053Z,75.67
2023-12-11T02:58:36.189Z,75.33
2023-12-11T02:59:08.240Z,74.67
2023-12-11T02:59:40.301Z,72.67
2023-12-11T03:00:12.441Z,71.00
2023-12-11T03:00:44.798Z,69.00
2023-12-11T03:01:17.154Z,68.33
2023-12-11T03:01:49.518Z,68.33
2023-12-11T03:02:21.658Z,69.00
2023-12-11T03:02:54.162Z,69.00
2023-12-11T03:03:26.325Z,68.33
2023-12-11T03:03:58.409Z,66.00
2023-12-11T03:04:30.536Z,65.67
2023-12-11T03:05:02.654Z,66.00
2023-12-11T03:05:34.885Z,66.33
2023-12-11T03:06:07.538Z,66.00
2023-12-11T03:06:39.623Z,66.00
2023-12-11T03:07:11.729Z,65.67
2023-12-11T03:07:43.914Z,64.33
2023-12-11T03:08:15.964Z,63.67
2023-12-11T03:08:48.023Z,64.00
2023-12-11T03:09:20.009Z,64.00
2023-12-11T03:09:53.848Z,64.33
2023-12-11T03:10:26.368Z,63.00
2023-12-11T03:10:59.281Z,63.33
2023-12-11T03:11:32.841Z,63.00
2023-12-11T03:12:05.359Z,63.00
2023-12-11T03:12:37.735Z,63.00
2023-12-11T03:13:10.001Z,63.00
2023-12-11T03:13:42.124Z,63.00
2023-12-11T03:14:14.221Z,63.00
2023-12-11T03:14:46.229Z,63.00
2023-12-11T03:15:18.288Z,63.00
2023-12-11T03:15:50.720Z,62.67
2023-12-11T03:16:22.859Z,62.00
2023-12-11T03:16:55.006Z,61.33
2023-12-11T03:17:27.295Z,60.67
2023-12-11T03:17:59.523Z,59.67
2023-12-11T03:18:31.813Z,59.33
2023-12-11T03:19:04.194Z,59.00
2023-12-11T03:19:36.445Z,57.67
2023-12-11T03:20:11.094Z,57.00
2023-12-11T03:20:43.089Z,56.00
2023-12-11T03:21:15.270Z,54.67
2023-12-11T03:21:47.318Z,54.00
2023-12-11T03:22:20.906Z,53.67
2023-12-11T03:22:54.860Z,52.33
2023-12-11T03:23:26.862Z,51.33
2023-12-11T03:23:58.873Z,50.00
2023-12-11T03:24:31.084Z,50.00
2023-12-11T03:25:03.341Z,49.00
2023-12-11T03:25:35.482Z,49.00
2023-12-11T03:26:07.458Z,49.00
2023-12-11T03:26:41.298Z,48.67
2023-12-11T03:27:13.352Z,47.33
2023-12-11T03:27:45.464Z,47.00
2023-12-11T03:28:17.526Z,46.00
2023-12-11T03:28:49.592Z,45.33
2023-12-11T03:29:21.657Z,45.33
2023-12-11T03:29:53.745Z,45.00
2023-12-11T03:30:25.901Z,44.00
2023-12-11T03:30:58.103Z,44.00
2023-12-11T03:31:30.264Z,43.33
2023-12-11T03:32:02.280Z,43.00
2023-12-11T03:32:34.371Z,43.00
2023-12-11T03:33:06.488Z,43.00
2023-12-11T03:33:38.784Z,43.00
2023-12-11T03:34:10.986Z,43.33
2023-12-11T03:34:43.528Z,43.67
2023-12-11T03:35:15.683Z,44.00
2023-12-11T03:35:47.830Z,44.00
2023-12-11T03:36:19.937Z,44.00
2023-12-11T03:36:52.111Z,44.00
2023-12-11T03:37:24.720Z,44.67
2023-12-11T03:37:56.784Z,46.67
2023-12-11T03:38:28.852Z,51.33
2023-12-11T03:39:00.891Z,59.33
2023-12-11T03:39:32.999Z,60.67
2023-12-11T03:40:06.182Z,60.00
2023-12-11T03:40:40.849Z,59.33
2023-12-11T03:41:12.881Z,59.00
2023-12-11T03:41:46.492Z,58.33
2023-12-11T03:42:18.799Z,58.00
2023-12-11T03:42:51.058Z,58.00
2023-12-11T03:43:23.131Z,57.33
2023-12-11T03:43:55.148Z,57.33
2023-12-11T03:44:27.302Z,56.67
2023-12-11T03:44:59.304Z,55.67
2023-12-11T03:45:31.661Z,54.00
2023-12-11T03:46:04.105Z,52.67
2023-12-11T03:46:36.136Z,50.67
2023-12-11T03:47:08.257Z,49.33
2023-12-11T03:47:40.424Z,47.67
2023-12-11T03:48:12.554Z,46.67
2023-12-11T03:48:44.892Z,46.33
2023-12-11T03:49:17.165Z,44.00
2023-12-11T03:49:49.289Z,42.00
2023-12-11T03:50:21.431Z,41.33
2023-12-11T03:50:53.998Z,40.00
2023-12-11T03:51:26.030Z,40.33
2023-12-11T03:51:58.138Z,41.00
2023-12-11T03:52:30.348Z,40.33
2023-12-11T03:53:02.414Z,40.00
2023-12-11T03:53:34.540Z,40.00
2023-12-11T03:54:06.594Z,39.33
2023-12-11T03:54:38.680Z,39.00
2023-12-11T03:55:11.177Z,39.00
2023-12-11T03:55:43.311Z,39.00
2023-12-11T03:56:15.513Z,39.33
2023-12-11T03:56:49.152Z,40.67
2023-12-11T03:57:21.238Z,42.00
2023-12-11T03:57:53.292Z,42.33
2023-12-11T03:58:26.984Z,43.00
2023-12-11T03:58:59.117Z,43.00
2023-12-11T03:59:31.123Z,43.00
2023-12-11T04:00:03.322Z,43.00
2023-12-11T04:00:35.434Z,44.00
2023-12-11T04:01:07.605Z,44.00
2023-12-11T04:01:39.793Z,44.67
2023-12-11T04:02:12.172Z,45.00
2023-12-11T04:02:44.598Z,45.00
2023-12-11T04:03:16.739Z,46.00
2023-12-11T04:03:48.991Z,47.67
2023-12-11T04:04:21.130Z,49.00
2023-12-11T04:04:53.227Z,50.33
2023-12-11T04:05:25.228Z,52.33
2023-12-11T04:05:57.343Z,61.67
2023-12-11T04:06:29.444Z,67.00
2023-12-11T04:07:01.565Z,71.00
2023-12-11T04:07:33.621Z,74.00
2023-12-11T04:08:06.094Z,79.33
2023-12-11T04:08:41.082Z,76.00
2023-12-11T04:09:13.278Z,85.67
2023-12-11T04:09:45.337Z,93.00
2023-12-11T04:10:17.503Z,93.67
2023-12-11T04:10:49.500Z,93.33
2023-12-11T04:11:21.690Z,91.00
2023-12-11T04:11:55.190Z,85.33
2023-12-11T04:12:27.173Z,84.00
2023-12-11T04:13:01.228Z,81.00
2023-12-11T04:13:33.298Z,78.67
2023-12-11T04:14:05.484Z,70.33
2023-12-11T04:14:37.467Z,61.33
2023-12-11T04:15:10.055Z,53.33
2023-12-11T04:15:42.236Z,45.33
2023-12-11T04:16:14.370Z,40.33
2023-12-11T04:16:46.602Z,40.00
2023-12-11T04:17:18.702Z,41.33
2023-12-11T04:17:50.942Z,42.33
2023-12-11T04:18:23.041Z,41.00
2023-12-11T04:18:58.487Z,39.00
2023-12-11T04:19:32.522Z,36.67
2023-12-11T04:20:05.552Z,36.00
2023-12-11T04:20:37.662Z,35.33
2023-12-11T04:21:09.655Z,32.67
2023-12-11T04:21:42.144Z,30.67
2023-12-11T04:22:14.688Z,30.33
2023-12-11T04:22:46.728Z,30.00
2023-12-11T04:23:19.292Z,29.00
2023-12-11T04:23:51.314Z,30.00
2023-12-11T04:24:23.309Z,30.33
2023-12-11T04:24:55.439Z,30.00
2023-12-11T04:25:27.477Z,29.67
2023-12-11T04:26:00.162Z,30.00
2023-12-11T04:26:32.463Z,31.00
2023-12-11T04:27:06.034Z,31.00
2023-12-11T04:27:38.121Z,31.33
2023-12-11T04:28:10.804Z,32.33
2023-12-11T04:28:42.870Z,33.00
2023-12-11T04:29:14.923Z,33.00
2023-12-11T04:29:46.929Z,33.00
2023-12-11T04:30:19.050Z,33.00
2023-12-11T04:30:51.108Z,33.00
2023-12-11T04:31:23.350Z,33.33
2023-12-11T04:31:55.586Z,34.00
2023-12-11T04:32:27.802Z,34.00
2023-12-11T04:33:00.018Z,34.00
2023-12-11T04:33:32.216Z,35.00
2023-12-11T04:34:04.568Z,35.67
2023-12-11T04:34:36.677Z,37.00
2023-12-11T04:35:09.118Z,39.00
2023-12-11T04:35:41.318Z,41.33
2023-12-11T04:36:13.374Z,42.00
2023-12-11T04:36:45.670Z,42.67
2023-12-11T04:37:17.757Z,43.00
2023-12-11T04:37:49.756Z,43.00
2023-12-11T04:38:21.756Z,43.67
2023-12-11T04:38:53.772Z,44.00
2023-12-11T04:39:25.911Z,44.67
2023-12-11T04:39:57.963Z,45.33
2023-12-11T04:40:30.144Z,46.00
2023-12-11T04:41:02.270Z,46.67
2023-12-11T04:41:34.419Z,51.00
2023-12-11T04:42:07.873Z,50.33
2023-12-11T04:42:40.141Z,50.00
2023-12-11T04:43:12.389Z,50.00
2023-12-11T04:43:44.526Z,49.33
2023-12-11T04:44:16.646Z,49.00
2023-12-11T04:44:48.868Z,49.00
2023-12-11T04:45:21.023Z,49.00
2023-12-11T04:45:53.325Z,48.33
2023-12-11T04:46:25.400Z,48.00
2023-12-11T04:46:57.501Z,48.00
2023-12-11T04:47:30.152Z,47.67
2023-12-11T04:48:02.578Z,47.00
2023-12-11T04:48:34.874Z,46.33
2023-12-11T04:49:07.362Z,46.00
2023-12-11T04:49:40.186Z,45.33
2023-12-11T04:50:12.318Z,45.00
2023-12-11T04:50:44.364Z,44.33
2023-12-11T04:51:16.524Z,43.33
2023-12-11T04:51:48.634Z,42.33
2023-12-11T04:52:20.661Z,41.67
2023-12-11T04:52:52.717Z,41.00
2023-12-11T04:53:24.735Z,41.00
2023-12-11T04:53:56.895Z,41.00
2023-12-11T04:54:29.108Z,41.00
2023-12-11T04:55:01.215Z,41.00
2023-12-11T04:55:33.366Z,41.00
2023-12-11T04:56:09.445Z,41.00
2023-12-11T04:56:41.550Z,41.67
2023-12-11T04:57:15.360Z,42.33
2023-12-11T04:57:47.677Z,44.00
2023-12-11T04:58:19.790Z,45.33
2023-12-11T04:58:51.921Z,46.67
2023-12-11T04:59:26.940Z,48.00
2023-12-11T04:59:58.940Z,49.00
2023-12-11T05:00:31.171Z,49.00
2023-12-11T05:01:03.600Z,50.00
2023-12-11T05:01:35.898Z,50.00
2023-12-11T05:02:08.258Z,50.00
2023-12-11T05:02:40.288Z,50.67
2023-12-11T05:03:12.563Z,51.00
2023-12-11T05:03:44.806Z,51.67
2023-12-11T05:04:16.914Z,52.00
2023-12-11T05:04:49.073Z,52.00
2023-12-11T05:05:21.235Z,52.67
2023-12-11T05:05:53.372Z,53.00
2023-12-11T05:06:25.442Z,53.00
2023-12-11T05:06:57.551Z,53.00
2023-12-11T05:07:29.832Z,52.67
2023-12-11T05:08:01.977Z,52.00
2023-12-11T05:08:34.225Z,51.67
2023-12-11T05:09:06.436Z,51.00
2023-12-11T05:09:38.632Z,51.00
2023-12-11T05:10:11.124Z,50.00
2023-12-11T05:10:43.326Z,49.33
2023-12-11T05:11:15.390Z,48.67
2023-12-11T05:11:47.404Z,47.67
2023-12-11T05:12:20.822Z,46.33
2023-12-11T05:12:52.936Z,45.00
2023-12-11T05:13:24.936Z,43.67
2023-12-11T05:13:57.015Z,43.00
2023-12-11T05:14:29.128Z,41.67
2023-12-11T05:15:01.219Z,40.67
2023-12-11T05:15:33.520Z,40.00
2023-12-11T05:16:06.311Z,39.00
2023-12-11T05:16:38.600Z,37.67
2023-12-11T05:17:10.831Z,36.00
2023-12-11T05:17:42.964Z,35.00
2023-12-11T05:18:15.135Z,34.00
2023-12-11T05:18:47.371Z,33.00
2023-12-11T05:19:19.651Z,32.67
2023-12-11T05:19:51.745Z,32.00
2023-12-11T05:20:23.811Z,31.67
2023-12-11T05:20:56.018Z,30.33
2023-12-11T05:21:28.071Z,29.67
2023-12-11T05:22:03.636Z,29.00
2023-12-11T05:22:35.724Z,29.00
2023-12-11T05:23:07.794Z,29.00
2023-12-11T05:23:39.889Z,29.00
2023-12-11T05:24:12.749Z,29.00
2023-12-11T05:24:44.883Z,29.00
2023-12-11T05:25:16.998Z,29.00
2023-12-11T05:25:49.060Z,29.00
2023-12-11T05:26:21.412Z,29.00
2023-12-11T05:26:55.366Z,29.00
2023-12-11T05:27:29.058Z,29.00
2023-12-11T05:28:01.385Z,28.33
2023-12-11T05:28:33.535Z,28.00
2023-12-11T05:29:06.225Z,28.00
2023-12-11T05:29:38.328Z,29.00
2023-12-11T05:30:10.911Z,29.00
2023-12-11T05:30:42.965Z,29.00
2023-12-11T05:31:15.414Z,29.00
2023-12-11T05:31:47.724Z,30.00
2023-12-11T05:32:19.818Z,30.00
2023-12-11T05:32:51.956Z,30.00
2023-12-11T05:33:24.371Z,30.00
2023-12-11T05:33:56.623Z,30.00
2023-12-11T05:34:28.736Z,30.00
2023-12-11T05:35:00.991Z,30.00
2023-12-11T05:35:33.040Z,30.00
2023-12-11T05:36:06.078Z,31.00
2023-12-11T05:36:38.170Z,31.00
2023-12-11T05:37:10.513Z,31.00
2023-12-11T05:37:42.682Z,36.67
2023-12-11T05:38:14.787Z,51.00
2023-12-11T05:38:49.809Z,55.33
2023-12-11T05:39:21.838Z,56.33
2023-12-11T05:40:01.228Z,53.33
2023-12-11T05:40:45.973Z,49.67
2023-12-11T05:41:18.448Z,49.00
2023-12-11T05:41:50.479Z,47.67
2023-12-11T05:42:22.565Z,46.33
2023-12-11T05:42:56.192Z,45.33
2023-12-11T05:43:28.219Z,44.33
2023-12-11T05:44:00.269Z,43.33
2023-12-11T05:44:32.272Z,42.00
2023-12-11T05:45:05.155Z,42.00
2023-12-11T05:45:37.249Z,42.00
2023-12-11T05:46:09.454Z,42.00
2023-12-11T05:46:41.715Z,44.33
2023-12-11T05:47:13.937Z,53.67
2023-12-11T05:47:46.199Z,79.00
2023-12-11T05:48:18.301Z,78.00
2023-12-11T05:48:50.464Z,82.00
2023-12-11T05:49:22.647Z,109.67
2023-12-11T05:49:54.865Z,93.00
2023-12-11T05:50:27.032Z,72.33
2023-12-11T05:50:59.247Z,68.67
2023-12-11T05:51:31.464Z,67.00
2023-12-11T05:52:03.952Z,63.67
2023-12-11T05:52:36.044Z,59.00
2023-12-11T05:53:08.382Z,56.67
2023-12-11T05:53:40.577Z,50.67
2023-12-11T05:54:12.629Z,47.00
2023-12-11T05:54:44.708Z,45.00
2023-12-11T05:55:16.928Z,44.00
2023-12-11T05:55:49.090Z,42.33
2023-12-11T05:56:21.097Z,41.33
2023-12-11T05:56:53.164Z,41.00
2023-12-11T05:57:25.785Z,41.00
2023-12-11T05:57:59.242Z,41.00
2023-12-11T05:58:31.251Z,41.00
2023-12-11T05:59:03.463Z,40.33
2023-12-11T05:59:35.606Z,41.00
2023-12-11T06:00:08.939Z,41.00
2023-12-11T06:00:41.385Z,41.33
2023-12-11T06:01:13.614Z,42.00
2023-12-11T06:01:45.934Z,42.00
2023-12-11T06:02:18.066Z,43.00
2023-12-11T06:02:50.153Z,43.00
2023-12-11T06:03:22.164Z,43.00
2023-12-11T06:03:54.216Z,43.00
2023-12-11T06:04:26.252Z,43.00
2023-12-11T06:04:58.281Z,43.00
2023-12-11T06:05:30.267Z,43.00
2023-12-11T06:06:02.370Z,42.33
2023-12-11T06:06:34.450Z,42.00
2023-12-11T06:07:06.542Z,42.00
2023-12-11T06:07:38.609Z,42.67
2023-12-11T06:08:10.680Z,43.00
2023-12-11T06:08:42.749Z,43.00
2023-12-11T06:09:15.021Z,43.00
2023-12-11T06:09:47.120Z,42.67
2023-12-11T06:10:19.222Z,42.00
2023-12-11T06:10:51.388Z,42.00
2023-12-11T06:11:23.382Z,42.00
2023-12-11T06:11:55.400Z,41.33
2023-12-11T06:12:27.520Z,41.00
2023-12-11T06:13:00.995Z,40.00
2023-12-11T06:13:33.070Z,40.00
2023-12-11T06:14:05.137Z,39.67
2023-12-11T06:14:40.038Z,39.00
2023-12-11T06:15:12.931Z,39.00
2023-12-11T06:15:45.204Z,39.00
2023-12-11T06:16:17.381Z,39.00
2023-12-11T06:16:49.591Z,39.00
2023-12-11T06:17:21.682Z,40.00
2023-12-11T06:17:53.823Z,40.00
2023-12-11T06:18:25.986Z,39.67
2023-12-11T06:18:58.106Z,39.00
2023-12-11T06:19:30.324Z,39.00
2023-12-11T06:20:02.507Z,39.00
2023-12-11T06:20:34.687Z,39.00
2023-12-11T06:21:07.158Z,39.00
2023-12-11T06:21:39.251Z,39.00
2023-12-11T06:22:11.316Z,39.00
2023-12-11T06:22:43.581Z,39.00
2023-12-11T06:23:15.628Z,39.00
2023-12-11T06:23:47.810Z,51.67
2023-12-11T06:24:19.818Z,94.33
2023-12-11T06:24:51.929Z,105.33
2023-12-11T06:25:23.999Z,122.33
2023-12-11T06:25:56.002Z,151.33
2023-12-11T06:26:31.374Z,166.67
2023-12-11T06:27:03.627Z,176.33
2023-12-11T06:27:35.670Z,183.33
2023-12-11T06:28:09.106Z,175.00
2023-12-11T06:28:41.143Z,180.67
2023-12-11T06:29:13.170Z,176.00
2023-12-11T06:29:45.296Z,168.67
2023-12-11T06:30:17.410Z,179.67
2023-12-11T06:30:49.524Z,171.67
2023-12-11T06:31:21.689Z,154.33
2023-12-11T06:31:53.691Z,139.33
2023-12-11T06:32:25.784Z,132.00
2023-12-11T06:32:57.851Z,128.67
2023-12-11T06:33:29.867Z,127.67
2023-12-11T06:34:02.037Z,125.00
2023-12-11T06:34:34.978Z,118.00
2023-12-11T06:35:07.940Z,105.67
2023-12-11T06:35:40.097Z,104.67
2023-12-11T06:36:12.298Z,103.67
2023-12-11T06:36:44.447Z,101.00
2023-12-11T06:37:16.778Z,102.33
2023-12-11T06:37:49.184Z,104.00
2023-12-11T06:38:21.186Z,111.33
2023-12-11T06:38:53.275Z,127.33
2023-12-11T06:39:25.250Z,149.00
2023-12-11T06:39:57.327Z,153.67
2023-12-11T06:40:29.412Z,157.00
2023-12-11T06:41:01.456Z,149.33
2023-12-11T06:41:36.266Z,142.67
2023-12-11T06:42:08.580Z,143.67
2023-12-11T06:42:40.717Z,140.00
2023-12-11T06:43:14.262Z,140.67
2023-12-11T06:43:49.190Z,153.00
2023-12-11T06:44:21.290Z,161.33
2023-12-11T06:44:53.741Z,161.00
2023-12-11T06:45:25.921Z,153.33
2023-12-11T06:45:58.082Z,156.00
2023-12-11T06:46:30.891Z,153.00
2023-12-11T06:47:03.385Z,152.33
2023-12-11T06:47:35.757Z,151.67
2023-12-11T06:48:08.122Z,149.67
2023-12-11T06:48:40.517Z,148.67
2023-12-11T06:49:12.857Z,148.67
2023-12-11T06:49:45.222Z,148.00
2023-12-11T06:50:17.413Z,150.67
2023-12-11T06:50:49.513Z,154.67
2023-12-11T06:51:21.680Z,156.00
2023-12-11T06:51:53.720Z,155.00
2023-12-11T06:52:25.934Z,161.33
2023-12-11T06:52:58.028Z,163.00
2023-12-11T06:53:30.101Z,165.33
2023-12-11T06:54:02.280Z,185.00
2023-12-11T06:54:34.575Z,224.67
2023-12-11T06:55:07.729Z,262.33
2023-12-11T06:55:39.795Z,267.33
2023-12-11T06:56:17.976Z,287.33
2023-12-11T06:56:50.258Z,298.33